sensor_id;sensor_type;location;lat;lon;timestamp;P1;durP1;ratioP1;P2;durP2;ratioP2
7829;SDS011;3960;51.86894000;5.39848000;2022-09-09T00:04:15;3.50;;;2.17;;
7829;SDS011;3960;51.86894000;5.39848000;2022-09-09T00:06:45;4.80;;;2.50;;
7829;SDS011;3960;51.86894000;5.39848000;2022-09-09T00:11:43;6.15;;;3.10;;
7829;SDS011;3960;51.86894000;5.39848000;2022-09-09T00:19:10;4.68;;;2.88;;
7829;SDS011;3960;51.86894000;5.39848000;2022-09-09T00:21:58;4.65;;;2.97;;
7829;SDS011;3960;51.86894000;5.39848000;2022-09-09T00:24:43;4.70;;;2.53;;
7829;SDS011;3960;51.86894000;5.39848000;2022-09-09T00:27:13;3.53;;;2.60;;
7829;SDS011;3960;51.86894000;5.39848000;2022-09-09T00:29:47;3.97;;;2.60;;
7829;SDS011;3960;51.86894000;5.39848000;2022-09-09T00:32:18;4.45;;;2.70;;
7829;SDS011;3960;51.86894000;5.39848000;2022-09-09T00:34:54;6.97;;;2.40;;
7829;SDS011;3960;51.86894000;5.39848000;2022-09-09T00:37:20;7.50;;;2.70;;
7829;SDS011;3960;51.86894000;5.39848000;2022-09-09T00:39:46;4.93;;;2.58;;
7829;SDS011;3960;51.86894000;5.39848000;2022-09-09T00:42:16;4.53;;;2.42;;
7829;SDS011;3960;51.86894000;5.39848000;2022-09-09T00:44:50;3.38;;;2.22;;
7829;SDS011;3960;51.86894000;5.39848000;2022-09-09T00:47:26;6.40;;;2.47;;
7829;SDS011;3960;51.86894000;5.39848000;2022-09-09T00:50:03;7.68;;;2.85;;
7829;SDS011;3960;51.86894000;5.39848000;2022-09-09T00:55:05;6.00;;;2.73;;
7829;SDS011;3960;51.86894000;5.39848000;2022-09-09T00:57:31;5.18;;;2.60;;
7829;SDS011;3960;51.86894000;5.39848000;2022-09-09T00:59:58;6.63;;;2.83;;
7829;SDS011;3960;51.86894000;5.39848000;2022-09-09T01:04:51;6.68;;;2.70;;
7829;SDS011;3960;51.86894000;5.39848000;2022-09-09T01:07:17;4.97;;;3.00;;
7829;SDS011;3960;51.86894000;5.39848000;2022-09-09T01:09:51;8.27;;;2.83;;
7829;SDS011;3960;51.86894000;5.39848000;2022-09-09T01:14:43;6.18;;;3.50;;
7829;SDS011;3960;51.86894000;5.39848000;2022-09-09T01:24:48;6.03;;;2.97;;
7829;SDS011;3960;51.86894000;5.39848000;2022-09-09T01:27:17;3.97;;;2.80;;
7829;SDS011;3960;51.86894000;5.39848000;2022-09-09T01:29:45;9.07;;;2.90;;
7829;SDS011;3960;51.86894000;5.39848000;2022-09-09T01:34:54;8.80;;;2.85;;
7829;SDS011;3960;51.86894000;5.39848000;2022-09-09T01:37:20;4.73;;;2.83;;
7829;SDS011;3960;51.86894000;5.39848000;2022-09-09T01:39:45;5.00;;;2.70;;
7829;SDS011;3960;51.86894000;5.39848000;2022-09-09T01:42:11;8.27;;;3.10;;
7829;SDS011;3960;51.86894000;5.39848000;2022-09-09T01:44:38;5.68;;;3.05;;
7829;SDS011;3960;51.86894000;5.39848000;2022-09-09T01:47:03;5.47;;;3.10;;
7829;SDS011;3960;51.86894000;5.39848000;2022-09-09T01:49:28;7.18;;;3.00;;
7829;SDS011;3960;51.86894000;5.39848000;2022-09-09T01:51:55;4.77;;;3.13;;
7829;SDS011;3960;51.86894000;5.39848000;2022-09-09T01:54:20;6.13;;;3.13;;
7829;SDS011;3960;51.86894000;5.39848000;2022-09-09T01:56:50;5.97;;;3.95;;
7829;SDS011;3960;51.86894000;5.39848000;2022-09-09T01:59:28;7.57;;;3.53;;
7829;SDS011;3960;51.86894000;5.39848000;2022-09-09T02:02:07;5.13;;;3.30;;
7829;SDS011;3960;51.86894000;5.39848000;2022-09-09T02:04:44;6.32;;;3.33;;
7829;SDS011;3960;51.86894000;5.39848000;2022-09-09T02:07:57;6.70;;;3.85;;
7829;SDS011;3960;51.86894000;5.39848000;2022-09-09T02:09:58;10.95;;;4.22;;
7829;SDS011;3960;51.86894000;5.39848000;2022-09-09T02:12:25;6.20;;;3.70;;
7829;SDS011;3960;51.86894000;5.39848000;2022-09-09T02:14:52;5.38;;;3.75;;
7829;SDS011;3960;51.86894000;5.39848000;2022-09-09T02:17:22;6.38;;;3.75;;
7829;SDS011;3960;51.86894000;5.39848000;2022-09-09T02:19:54;5.57;;;3.50;;
7829;SDS011;3960;51.86894000;5.39848000;2022-09-09T02:22:23;7.07;;;3.67;;
7829;SDS011;3960;51.86894000;5.39848000;2022-09-09T02:24:49;8.68;;;3.70;;
7829;SDS011;3960;51.86894000;5.39848000;2022-09-09T02:27:17;5.63;;;3.33;;
7829;SDS011;3960;51.86894000;5.39848000;2022-09-09T02:29:43;5.45;;;3.75;;
7829;SDS011;3960;51.86894000;5.39848000;2022-09-09T02:32:11;8.60;;;3.78;;
7829;SDS011;3960;51.86894000;5.39848000;2022-09-09T02:34:45;8.05;;;3.85;;
7829;SDS011;3960;51.86894000;5.39848000;2022-09-09T02:37:11;5.70;;;3.42;;
7829;SDS011;3960;51.86894000;5.39848000;2022-09-09T02:39:37;10.10;;;3.58;;
7829;SDS011;3960;51.86894000;5.39848000;2022-09-09T02:42:03;5.30;;;3.70;;
7829;SDS011;3960;51.86894000;5.39848000;2022-09-09T02:44:29;7.75;;;3.80;;
7829;SDS011;3960;51.86894000;5.39848000;2022-09-09T02:49:28;6.85;;;3.50;;
7829;SDS011;3960;51.86894000;5.39848000;2022-09-09T02:52:00;9.70;;;3.75;;
7829;SDS011;3960;51.86894000;5.39848000;2022-09-09T02:54:30;6.33;;;3.80;;
7829;SDS011;3960;51.86894000;5.39848000;2022-09-09T02:56:56;10.20;;;4.03;;
7829;SDS011;3960;51.86894000;5.39848000;2022-09-09T02:59:26;8.63;;;4.15;;
7829;SDS011;3960;51.86894000;5.39848000;2022-09-09T03:01:51;7.50;;;4.07;;
7829;SDS011;3960;51.86894000;5.39848000;2022-09-09T03:04:16;6.33;;;3.27;;
7829;SDS011;3960;51.86894000;5.39848000;2022-09-09T03:06:42;6.90;;;3.70;;
7829;SDS011;3960;51.86894000;5.39848000;2022-09-09T03:09:07;6.35;;;3.50;;
7829;SDS011;3960;51.86894000;5.39848000;2022-09-09T03:11:35;6.47;;;3.70;;
7829;SDS011;3960;51.86894000;5.39848000;2022-09-09T03:14:01;13.45;;;3.80;;
7829;SDS011;3960;51.86894000;5.39848000;2022-09-09T03:16:26;7.47;;;3.53;;
7829;SDS011;3960;51.86894000;5.39848000;2022-09-09T03:18:51;6.73;;;3.60;;
7829;SDS011;3960;51.86894000;5.39848000;2022-09-09T03:21:17;6.50;;;3.88;;
7829;SDS011;3960;51.86894000;5.39848000;2022-09-09T03:23:42;7.35;;;3.75;;
7829;SDS011;3960;51.86894000;5.39848000;2022-09-09T03:26:08;6.13;;;3.63;;
7829;SDS011;3960;51.86894000;5.39848000;2022-09-09T03:28:33;6.40;;;3.80;;
7829;SDS011;3960;51.86894000;5.39848000;2022-09-09T03:30:59;9.50;;;3.80;;
7829;SDS011;3960;51.86894000;5.39848000;2022-09-09T03:33:24;10.73;;;4.30;;
7829;SDS011;3960;51.86894000;5.39848000;2022-09-09T03:35:49;11.88;;;4.18;;
7829;SDS011;3960;51.86894000;5.39848000;2022-09-09T03:38:15;7.68;;;3.17;;
7829;SDS011;3960;51.86894000;5.39848000;2022-09-09T03:40:47;7.00;;;3.60;;
7829;SDS011;3960;51.86894000;5.39848000;2022-09-09T03:43:13;7.20;;;4.00;;
7829;SDS011;3960;51.86894000;5.39848000;2022-09-09T03:45:41;9.73;;;3.55;;
7829;SDS011;3960;51.86894000;5.39848000;2022-09-09T03:48:11;7.25;;;4.03;;
7829;SDS011;3960;51.86894000;5.39848000;2022-09-09T03:50:36;6.20;;;3.63;;
7829;SDS011;3960;51.86894000;5.39848000;2022-09-09T03:53:01;7.78;;;3.60;;
7829;SDS011;3960;51.86894000;5.39848000;2022-09-09T03:55:27;9.77;;;4.20;;
7829;SDS011;3960;51.86894000;5.39848000;2022-09-09T03:57:52;7.00;;;4.03;;
7829;SDS011;3960;51.86894000;5.39848000;2022-09-09T04:00:17;8.27;;;3.70;;
7829;SDS011;3960;51.86894000;5.39848000;2022-09-09T04:02:42;8.95;;;4.22;;
7829;SDS011;3960;51.86894000;5.39848000;2022-09-09T04:05:08;10.00;;;3.78;;
7829;SDS011;3960;51.86894000;5.39848000;2022-09-09T04:07:34;7.30;;;3.63;;
7829;SDS011;3960;51.86894000;5.39848000;2022-09-09T04:09:59;7.70;;;3.90;;
7829;SDS011;3960;51.86894000;5.39848000;2022-09-09T04:12:24;9.85;;;4.00;;
7829;SDS011;3960;51.86894000;5.39848000;2022-09-09T04:14:50;9.55;;;4.07;;
7829;SDS011;3960;51.86894000;5.39848000;2022-09-09T04:17:15;10.82;;;3.50;;
7829;SDS011;3960;51.86894000;5.39848000;2022-09-09T04:19:40;11.00;;;4.00;;
7829;SDS011;3960;51.86894000;5.39848000;2022-09-09T04:22:07;11.77;;;3.95;;
7829;SDS011;3960;51.86894000;5.39848000;2022-09-09T04:24:32;6.97;;;3.40;;
7829;SDS011;3960;51.86894000;5.39848000;2022-09-09T04:26:57;9.73;;;3.77;;
7829;SDS011;3960;51.86894000;5.39848000;2022-09-09T04:29:22;7.55;;;3.47;;
7829;SDS011;3960;51.86894000;5.39848000;2022-09-09T04:31:47;12.17;;;3.80;;
7829;SDS011;3960;51.86894000;5.39848000;2022-09-09T04:34:13;8.93;;;4.53;;
7829;SDS011;3960;51.86894000;5.39848000;2022-09-09T04:36:38;8.38;;;3.30;;
7829;SDS011;3960;51.86894000;5.39848000;2022-09-09T04:39:05;12.13;;;3.90;;
7829;SDS011;3960;51.86894000;5.39848000;2022-09-09T04:41:30;9.77;;;4.15;;
7829;SDS011;3960;51.86894000;5.39848000;2022-09-09T04:43:56;7.22;;;3.63;;
7829;SDS011;3960;51.86894000;5.39848000;2022-09-09T04:46:21;10.13;;;4.20;;
7829;SDS011;3960;51.86894000;5.39848000;2022-09-09T04:48:48;11.05;;;4.40;;
7829;SDS011;3960;51.86894000;5.39848000;2022-09-09T04:51:14;10.20;;;4.18;;
7829;SDS011;3960;51.86894000;5.39848000;2022-09-09T04:53:39;9.70;;;3.70;;
7829;SDS011;3960;51.86894000;5.39848000;2022-09-09T04:56:09;14.00;;;4.13;;
7829;SDS011;3960;51.86894000;5.39848000;2022-09-09T04:58:35;10.27;;;3.70;;
7829;SDS011;3960;51.86894000;5.39848000;2022-09-09T05:01:07;7.88;;;3.80;;
7829;SDS011;3960;51.86894000;5.39848000;2022-09-09T05:03:32;10.20;;;3.85;;
7829;SDS011;3960;51.86894000;5.39848000;2022-09-09T05:06:02;7.40;;;3.60;;
7829;SDS011;3960;51.86894000;5.39848000;2022-09-09T05:08:28;7.88;;;3.55;;
7829;SDS011;3960;51.86894000;5.39848000;2022-09-09T05:10:54;9.93;;;3.60;;
7829;SDS011;3960;51.86894000;5.39848000;2022-09-09T05:13:20;11.60;;;3.85;;
7829;SDS011;3960;51.86894000;5.39848000;2022-09-09T05:15:51;9.07;;;3.65;;
7829;SDS011;3960;51.86894000;5.39848000;2022-09-09T05:18:16;11.35;;;4.03;;
7829;SDS011;3960;51.86894000;5.39848000;2022-09-09T05:20:41;8.57;;;3.92;;
7829;SDS011;3960;51.86894000;5.39848000;2022-09-09T05:23:07;9.85;;;4.28;;
7829;SDS011;3960;51.86894000;5.39848000;2022-09-09T05:25:32;12.90;;;3.55;;
7829;SDS011;3960;51.86894000;5.39848000;2022-09-09T05:27:58;8.20;;;3.17;;
7829;SDS011;3960;51.86894000;5.39848000;2022-09-09T05:30:24;13.70;;;4.03;;
7829;SDS011;3960;51.86894000;5.39848000;2022-09-09T05:32:51;11.48;;;3.58;;
7829;SDS011;3960;51.86894000;5.39848000;2022-09-09T05:35:16;10.55;;;3.95;;
7829;SDS011;3960;51.86894000;5.39848000;2022-09-09T05:37:43;11.18;;;3.30;;
7829;SDS011;3960;51.86894000;5.39848000;2022-09-09T05:40:09;11.02;;;3.75;;
7829;SDS011;3960;51.86894000;5.39848000;2022-09-09T05:42:35;6.05;;;3.13;;
7829;SDS011;3960;51.86894000;5.39848000;2022-09-09T05:45:00;6.07;;;3.07;;
7829;SDS011;3960;51.86894000;5.39848000;2022-09-09T05:47:26;7.87;;;3.27;;
7829;SDS011;3960;51.86894000;5.39848000;2022-09-09T05:49:52;11.82;;;3.65;;
7829;SDS011;3960;51.86894000;5.39848000;2022-09-09T05:52:17;9.63;;;3.88;;
7829;SDS011;3960;51.86894000;5.39848000;2022-09-09T05:54:43;8.87;;;3.17;;
7829;SDS011;3960;51.86894000;5.39848000;2022-09-09T05:57:08;7.97;;;3.47;;
7829;SDS011;3960;51.86894000;5.39848000;2022-09-09T05:59:33;10.43;;;3.30;;
7829;SDS011;3960;51.86894000;5.39848000;2022-09-09T06:01:58;16.60;;;3.43;;
7829;SDS011;3960;51.86894000;5.39848000;2022-09-09T06:04:24;10.18;;;3.40;;
7829;SDS011;3960;51.86894000;5.39848000;2022-09-09T06:06:49;6.35;;;2.90;;
7829;SDS011;3960;51.86894000;5.39848000;2022-09-09T06:09:15;13.07;;;3.40;;
7829;SDS011;3960;51.86894000;5.39848000;2022-09-09T06:11:40;9.40;;;3.13;;
7829;SDS011;3960;51.86894000;5.39848000;2022-09-09T06:14:06;9.43;;;3.05;;
7829;SDS011;3960;51.86894000;5.39848000;2022-09-09T06:16:32;7.90;;;3.22;;
7829;SDS011;3960;51.86894000;5.39848000;2022-09-09T06:18:57;7.50;;;3.00;;
7829;SDS011;3960;51.86894000;5.39848000;2022-09-09T06:21:24;10.48;;;3.35;;
7829;SDS011;3960;51.86894000;5.39848000;2022-09-09T06:23:49;11.68;;;3.00;;
7829;SDS011;3960;51.86894000;5.39848000;2022-09-09T06:26:26;11.90;;;2.65;;
7829;SDS011;3960;51.86894000;5.39848000;2022-09-09T06:28:52;6.70;;;2.60;;
7829;SDS011;3960;51.86894000;5.39848000;2022-09-09T06:31:19;6.80;;;2.67;;
7829;SDS011;3960;51.86894000;5.39848000;2022-09-09T06:33:46;13.23;;;2.83;;
7829;SDS011;3960;51.86894000;5.39848000;2022-09-09T06:36:12;7.83;;;2.90;;
7829;SDS011;3960;51.86894000;5.39848000;2022-09-09T06:38:38;7.20;;;2.63;;
7829;SDS011;3960;51.86894000;5.39848000;2022-09-09T06:41:04;10.90;;;2.60;;
7829;SDS011;3960;51.86894000;5.39848000;2022-09-09T06:43:30;9.68;;;2.50;;
7829;SDS011;3960;51.86894000;5.39848000;2022-09-09T06:45:59;9.63;;;3.22;;
7829;SDS011;3960;51.86894000;5.39848000;2022-09-09T06:48:25;7.50;;;2.55;;
7829;SDS011;3960;51.86894000;5.39848000;2022-09-09T06:50:51;3.97;;;1.75;;
7829;SDS011;3960;51.86894000;5.39848000;2022-09-09T06:53:17;9.95;;;2.47;;
7829;SDS011;3960;51.86894000;5.39848000;2022-09-09T06:55:44;10.30;;;2.95;;
7829;SDS011;3960;51.86894000;5.39848000;2022-09-09T06:58:09;6.93;;;2.13;;
7829;SDS011;3960;51.86894000;5.39848000;2022-09-09T07:00:35;9.13;;;2.20;;
7829;SDS011;3960;51.86894000;5.39848000;2022-09-09T07:03:02;5.00;;;1.80;;
7829;SDS011;3960;51.86894000;5.39848000;2022-09-09T07:05:28;8.77;;;2.28;;
7829;SDS011;3960;51.86894000;5.39848000;2022-09-09T07:07:53;8.87;;;2.83;;
7829;SDS011;3960;51.86894000;5.39848000;2022-09-09T07:10:18;8.18;;;2.15;;
7829;SDS011;3960;51.86894000;5.39848000;2022-09-09T07:12:43;8.30;;;2.20;;
7829;SDS011;3960;51.86894000;5.39848000;2022-09-09T07:15:08;7.27;;;2.37;;
7829;SDS011;3960;51.86894000;5.39848000;2022-09-09T07:17:34;5.43;;;2.03;;
7829;SDS011;3960;51.86894000;5.39848000;2022-09-09T07:20:00;7.25;;;2.28;;
7829;SDS011;3960;51.86894000;5.39848000;2022-09-09T07:22:25;5.43;;;2.20;;
7829;SDS011;3960;51.86894000;5.39848000;2022-09-09T07:24:52;11.82;;;2.38;;
7829;SDS011;3960;51.86894000;5.39848000;2022-09-09T07:27:17;5.77;;;1.90;;
7829;SDS011;3960;51.86894000;5.39848000;2022-09-09T07:29:42;7.63;;;2.25;;
7829;SDS011;3960;51.86894000;5.39848000;2022-09-09T07:32:07;4.80;;;1.93;;
7829;SDS011;3960;51.86894000;5.39848000;2022-09-09T07:34:33;8.07;;;1.80;;
7829;SDS011;3960;51.86894000;5.39848000;2022-09-09T07:36:58;5.60;;;1.95;;
7829;SDS011;3960;51.86894000;5.39848000;2022-09-09T07:39:23;9.07;;;2.10;;
7829;SDS011;3960;51.86894000;5.39848000;2022-09-09T07:41:49;5.78;;;1.77;;
7829;SDS011;3960;51.86894000;5.39848000;2022-09-09T07:44:18;11.07;;;2.83;;
7829;SDS011;3960;51.86894000;5.39848000;2022-09-09T07:46:44;8.93;;;2.40;;
7829;SDS011;3960;51.86894000;5.39848000;2022-09-09T07:49:10;12.20;;;2.40;;
7829;SDS011;3960;51.86894000;5.39848000;2022-09-09T07:51:37;7.47;;;2.28;;
7829;SDS011;3960;51.86894000;5.39848000;2022-09-09T07:54:03;7.50;;;2.08;;
7829;SDS011;3960;51.86894000;5.39848000;2022-09-09T07:56:29;11.15;;;1.98;;
7829;SDS011;3960;51.86894000;5.39848000;2022-09-09T07:58:55;7.32;;;2.08;;
7829;SDS011;3960;51.86894000;5.39848000;2022-09-09T08:01:22;7.80;;;2.88;;
7829;SDS011;3960;51.86894000;5.39848000;2022-09-09T08:03:58;9.63;;;2.17;;
7829;SDS011;3960;51.86894000;5.39848000;2022-09-09T08:06:24;10.27;;;2.20;;
7829;SDS011;3960;51.86894000;5.39848000;2022-09-09T08:08:50;9.00;;;2.15;;
7829;SDS011;3960;51.86894000;5.39848000;2022-09-09T08:11:15;10.50;;;2.55;;
7829;SDS011;3960;51.86894000;5.39848000;2022-09-09T08:13:41;7.87;;;2.00;;
7829;SDS011;3960;51.86894000;5.39848000;2022-09-09T08:16:17;7.75;;;2.25;;
7829;SDS011;3960;51.86894000;5.39848000;2022-09-09T08:18:43;10.23;;;2.10;;
7829;SDS011;3960;51.86894000;5.39848000;2022-09-09T08:21:11;10.02;;;2.28;;
7829;SDS011;3960;51.86894000;5.39848000;2022-09-09T08:23:37;6.15;;;2.45;;
7829;SDS011;3960;51.86894000;5.39848000;2022-09-09T08:26:03;9.50;;;2.33;;
7829;SDS011;3960;51.86894000;5.39848000;2022-09-09T08:28:28;6.32;;;2.15;;
7829;SDS011;3960;51.86894000;5.39848000;2022-09-09T08:30:53;7.47;;;2.60;;
7829;SDS011;3960;51.86894000;5.39848000;2022-09-09T08:33:19;10.73;;;3.05;;
7829;SDS011;3960;51.86894000;5.39848000;2022-09-09T08:35:50;10.32;;;2.70;;
7829;SDS011;3960;51.86894000;5.39848000;2022-09-09T08:38:15;8.32;;;2.20;;
7829;SDS011;3960;51.86894000;5.39848000;2022-09-09T08:40:42;7.90;;;1.83;;
7829;SDS011;3960;51.86894000;5.39848000;2022-09-09T08:43:10;8.18;;;2.45;;
7829;SDS011;3960;51.86894000;5.39848000;2022-09-09T08:45:47;12.13;;;2.47;;
7829;SDS011;3960;51.86894000;5.39848000;2022-09-09T08:48:19;6.18;;;2.17;;
7829;SDS011;3960;51.86894000;5.39848000;2022-09-09T08:50:47;7.88;;;2.08;;
7829;SDS011;3960;51.86894000;5.39848000;2022-09-09T08:53:18;9.93;;;2.05;;
7829;SDS011;3960;51.86894000;5.39848000;2022-09-09T08:55:51;12.02;;;2.50;;
7829;SDS011;3960;51.86894000;5.39848000;2022-09-09T09:06:18;7.03;;;2.13;;
7829;SDS011;3960;51.86894000;5.39848000;2022-09-09T09:09:00;10.27;;;2.38;;
7829;SDS011;3960;51.86894000;5.39848000;2022-09-09T09:11:26;5.85;;;2.00;;
7829;SDS011;3960;51.86894000;5.39848000;2022-09-09T09:16:33;7.05;;;2.55;;
7829;SDS011;3960;51.86894000;5.39848000;2022-09-09T09:18:59;10.57;;;2.17;;
7829;SDS011;3960;51.86894000;5.39848000;2022-09-09T09:23:56;6.63;;;2.08;;
7829;SDS011;3960;51.86894000;5.39848000;2022-09-09T09:26:23;9.50;;;2.00;;
7829;SDS011;3960;51.86894000;5.39848000;2022-09-09T09:28:51;6.07;;;2.08;;
7829;SDS011;3960;51.86894000;5.39848000;2022-09-09T09:31:17;9.57;;;2.10;;
7829;SDS011;3960;51.86894000;5.39848000;2022-09-09T09:33:50;8.90;;;2.47;;
7829;SDS011;3960;51.86894000;5.39848000;2022-09-09T09:36:18;5.95;;;1.75;;
7829;SDS011;3960;51.86894000;5.39848000;2022-09-09T09:38:57;11.35;;;2.08;;
7829;SDS011;3960;51.86894000;5.39848000;2022-09-09T09:43:56;9.07;;;2.08;;
7829;SDS011;3960;51.86894000;5.39848000;2022-09-09T09:46:22;9.07;;;2.77;;
7829;SDS011;3960;51.86894000;5.39848000;2022-09-09T09:49:04;6.07;;;1.90;;
7829;SDS011;3960;51.86894000;5.39848000;2022-09-09T09:51:33;7.95;;;2.33;;
7829;SDS011;3960;51.86894000;5.39848000;2022-09-09T09:56:43;8.63;;;2.35;;
7829;SDS011;3960;51.86894000;5.39848000;2022-09-09T10:02:13;12.48;;;2.35;;
7829;SDS011;3960;51.86894000;5.39848000;2022-09-09T10:04:39;8.75;;;1.80;;
7829;SDS011;3960;51.86894000;5.39848000;2022-09-09T10:07:37;9.90;;;2.30;;
7829;SDS011;3960;51.86894000;5.39848000;2022-09-09T10:09:57;11.38;;;2.22;;
7829;SDS011;3960;51.86894000;5.39848000;2022-09-09T10:12:36;8.00;;;2.00;;
7829;SDS011;3960;51.86894000;5.39848000;2022-09-09T10:22:52;6.72;;;2.20;;
7829;SDS011;3960;51.86894000;5.39848000;2022-09-09T10:30:36;9.80;;;3.00;;
7829;SDS011;3960;51.86894000;5.39848000;2022-09-09T10:33:08;7.25;;;2.47;;
7829;SDS011;3960;51.86894000;5.39848000;2022-09-09T10:35:56;10.45;;;2.70;;
7829;SDS011;3960;51.86894000;5.39848000;2022-09-09T10:38:42;8.80;;;2.20;;
7829;SDS011;3960;51.86894000;5.39848000;2022-09-09T10:49:22;6.47;;;2.00;;
7829;SDS011;3960;51.86894000;5.39848000;2022-09-09T10:51:56;11.07;;;2.83;;
7829;SDS011;3960;51.86894000;5.39848000;2022-09-09T10:57:25;7.60;;;2.80;;
7829;SDS011;3960;51.86894000;5.39848000;2022-09-09T10:59:53;9.82;;;2.65;;
7829;SDS011;3960;51.86894000;5.39848000;2022-09-09T11:02:29;5.82;;;2.30;;
7829;SDS011;3960;51.86894000;5.39848000;2022-09-09T11:04:55;10.00;;;2.13;;
7829;SDS011;3960;51.86894000;5.39848000;2022-09-09T11:07:33;6.38;;;2.25;;
7829;SDS011;3960;51.86894000;5.39848000;2022-09-09T11:10:02;7.60;;;1.95;;
7829;SDS011;3960;51.86894000;5.39848000;2022-09-09T11:12:29;4.80;;;2.10;;
7829;SDS011;3960;51.86894000;5.39848000;2022-09-09T11:14:57;9.02;;;2.50;;
7829;SDS011;3960;51.86894000;5.39848000;2022-09-09T11:17:24;7.32;;;2.55;;
7829;SDS011;3960;51.86894000;5.39848000;2022-09-09T11:19:51;11.75;;;2.55;;
7829;SDS011;3960;51.86894000;5.39848000;2022-09-09T11:25:23;7.70;;;1.98;;
7829;SDS011;3960;51.86894000;5.39848000;2022-09-09T11:27:44;9.70;;;2.40;;
7829;SDS011;3960;51.86894000;5.39848000;2022-09-09T11:30:18;8.98;;;2.40;;
7829;SDS011;3960;51.86894000;5.39848000;2022-09-09T11:38:21;7.35;;;2.55;;
7829;SDS011;3960;51.86894000;5.39848000;2022-09-09T11:40:56;11.32;;;2.50;;
7829;SDS011;3960;51.86894000;5.39848000;2022-09-09T11:43:24;8.45;;;2.10;;
7829;SDS011;3960;51.86894000;5.39848000;2022-09-09T11:45:51;6.38;;;1.90;;
7829;SDS011;3960;51.86894000;5.39848000;2022-09-09T11:48:23;6.28;;;2.00;;
7829;SDS011;3960;51.86894000;5.39848000;2022-09-09T11:50:57;5.93;;;2.13;;
7829;SDS011;3960;51.86894000;5.39848000;2022-09-09T11:53:23;7.88;;;2.42;;
7829;SDS011;3960;51.86894000;5.39848000;2022-09-09T11:55:59;6.60;;;1.90;;
7829;SDS011;3960;51.86894000;5.39848000;2022-09-09T11:58:25;6.18;;;2.15;;
7829;SDS011;3960;51.86894000;5.39848000;2022-09-09T12:00:51;6.10;;;2.28;;
7829;SDS011;3960;51.86894000;5.39848000;2022-09-09T12:03:34;11.77;;;2.40;;
7829;SDS011;3960;51.86894000;5.39848000;2022-09-09T12:06:00;11.02;;;2.22;;
7829;SDS011;3960;51.86894000;5.39848000;2022-09-09T12:08:33;5.63;;;2.00;;
7829;SDS011;3960;51.86894000;5.39848000;2022-09-09T12:11:01;5.93;;;2.20;;
7829;SDS011;3960;51.86894000;5.39848000;2022-09-09T12:13:28;7.18;;;2.20;;
7829;SDS011;3960;51.86894000;5.39848000;2022-09-09T12:15:54;4.68;;;1.70;;
7829;SDS011;3960;51.86894000;5.39848000;2022-09-09T12:18:32;7.13;;;2.30;;
7829;SDS011;3960;51.86894000;5.39848000;2022-09-09T12:21:02;5.50;;;2.00;;
7829;SDS011;3960;51.86894000;5.39848000;2022-09-09T12:23:37;9.77;;;2.00;;
7829;SDS011;3960;51.86894000;5.39848000;2022-09-09T12:26:22;7.65;;;2.08;;
7829;SDS011;3960;51.86894000;5.39848000;2022-09-09T12:31:22;6.38;;;2.20;;
7829;SDS011;3960;51.86894000;5.39848000;2022-09-09T12:33:49;5.32;;;2.28;;
7829;SDS011;3960;51.86894000;5.39848000;2022-09-09T12:36:18;5.53;;;2.30;;
7829;SDS011;3960;51.86894000;5.39848000;2022-09-09T12:38:44;5.55;;;1.92;;
7829;SDS011;3960;51.86894000;5.39848000;2022-09-09T12:41:19;5.28;;;2.20;;
7829;SDS011;3960;51.86894000;5.39848000;2022-09-09T12:43:44;6.22;;;1.98;;
7829;SDS011;3960;51.86894000;5.39848000;2022-09-09T12:46:12;6.57;;;1.90;;
7829;SDS011;3960;51.86894000;5.39848000;2022-09-09T12:48:40;5.28;;;2.33;;
7829;SDS011;3960;51.86894000;5.39848000;2022-09-09T12:51:19;9.38;;;1.98;;
7829;SDS011;3960;51.86894000;5.39848000;2022-09-09T12:53:46;6.70;;;1.90;;
7829;SDS011;3960;51.86894000;5.39848000;2022-09-09T12:56:18;6.05;;;2.45;;
7829;SDS011;3960;51.86894000;5.39848000;2022-09-09T12:58:45;6.80;;;1.90;;
7829;SDS011;3960;51.86894000;5.39848000;2022-09-09T13:01:18;6.10;;;2.08;;
7829;SDS011;3960;51.86894000;5.39848000;2022-09-09T13:03:45;5.90;;;2.47;;
7829;SDS011;3960;51.86894000;5.39848000;2022-09-09T13:06:13;7.45;;;2.28;;
7829;SDS011;3960;51.86894000;5.39848000;2022-09-09T13:08:39;11.52;;;2.33;;
7829;SDS011;3960;51.86894000;5.39848000;2022-09-09T13:11:07;6.18;;;1.83;;
7829;SDS011;3960;51.86894000;5.39848000;2022-09-09T13:13:35;6.28;;;2.10;;
7829;SDS011;3960;51.86894000;5.39848000;2022-09-09T13:16:00;7.90;;;2.03;;
7829;SDS011;3960;51.86894000;5.39848000;2022-09-09T13:18:28;6.22;;;2.10;;
7829;SDS011;3960;51.86894000;5.39848000;2022-09-09T13:20:54;8.18;;;2.40;;
7829;SDS011;3960;51.86894000;5.39848000;2022-09-09T13:23:22;6.00;;;2.10;;
7829;SDS011;3960;51.86894000;5.39848000;2022-09-09T13:26:01;9.45;;;2.17;;
7829;SDS011;3960;51.86894000;5.39848000;2022-09-09T13:28:28;4.65;;;2.10;;
7829;SDS011;3960;51.86894000;5.39848000;2022-09-09T13:30:58;4.55;;;1.60;;
7829;SDS011;3960;51.86894000;5.39848000;2022-09-09T13:33:29;3.53;;;1.63;;
7829;SDS011;3960;51.86894000;5.39848000;2022-09-09T13:35:55;5.57;;;2.03;;
7829;SDS011;3960;51.86894000;5.39848000;2022-09-09T13:38:21;7.47;;;2.00;;
7829;SDS011;3960;51.86894000;5.39848000;2022-09-09T13:40:56;6.07;;;2.10;;
7829;SDS011;3960;51.86894000;5.39848000;2022-09-09T13:43:22;4.45;;;2.10;;
7829;SDS011;3960;51.86894000;5.39848000;2022-09-09T13:45:52;5.20;;;2.05;;
7829;SDS011;3960;51.86894000;5.39848000;2022-09-09T13:48:18;5.10;;;2.10;;
7829;SDS011;3960;51.86894000;5.39848000;2022-09-09T13:50:52;7.47;;;2.15;;
7829;SDS011;3960;51.86894000;5.39848000;2022-09-09T13:53:18;5.22;;;2.97;;
7829;SDS011;3960;51.86894000;5.39848000;2022-09-09T13:55:43;10.37;;;2.90;;
7829;SDS011;3960;51.86894000;5.39848000;2022-09-09T13:58:14;5.55;;;2.10;;
7829;SDS011;3960;51.86894000;5.39848000;2022-09-09T14:03:05;4.65;;;1.75;;
7829;SDS011;3960;51.86894000;5.39848000;2022-09-09T14:05:32;5.13;;;2.03;;
7829;SDS011;3960;51.86894000;5.39848000;2022-09-09T14:07:58;4.75;;;2.38;;
7829;SDS011;3960;51.86894000;5.39848000;2022-09-09T14:10:25;4.10;;;1.88;;
7829;SDS011;3960;51.86894000;5.39848000;2022-09-09T14:12:50;7.75;;;2.45;;
7829;SDS011;3960;51.86894000;5.39848000;2022-09-09T14:15:16;4.57;;;1.77;;
7829;SDS011;3960;51.86894000;5.39848000;2022-09-09T14:17:41;6.88;;;2.35;;
7829;SDS011;3960;51.86894000;5.39848000;2022-09-09T14:20:06;5.60;;;1.83;;
7829;SDS011;3960;51.86894000;5.39848000;2022-09-09T14:22:36;6.93;;;2.10;;
7829;SDS011;3960;51.86894000;5.39848000;2022-09-09T14:25:02;6.85;;;2.15;;
7829;SDS011;3960;51.86894000;5.39848000;2022-09-09T14:27:27;14.45;;;3.22;;
7829;SDS011;3960;51.86894000;5.39848000;2022-09-09T14:29:53;7.85;;;2.22;;
7829;SDS011;3960;51.86894000;5.39848000;2022-09-09T14:32:19;10.45;;;2.65;;
7829;SDS011;3960;51.86894000;5.39848000;2022-09-09T14:34:44;12.85;;;3.42;;
7829;SDS011;3960;51.86894000;5.39848000;2022-09-09T14:37:09;8.30;;;2.85;;
7829;SDS011;3960;51.86894000;5.39848000;2022-09-09T14:39:35;6.47;;;2.92;;
7829;SDS011;3960;51.86894000;5.39848000;2022-09-09T14:42:00;7.32;;;2.70;;
7829;SDS011;3960;51.86894000;5.39848000;2022-09-09T14:44:27;7.60;;;2.63;;